sensor_id;sensor_type;location;lat;lon;timestamp;pressure;altitude;pressure_sealevel;temperature;humidity
47082;BME280;33066;49.296;14.470;2023-05-12T00:01:57;96818.60;;;18.34;37.13
47082;BME280;33066;49.296;14.470;2023-05-12T00:04:22;96818.98;;;18.05;37.15
47082;BME280;33066;49.296;14.470;2023-05-12T00:06:48;96818.10;;;18.04;37.37
47082;BME280;33066;49.296;14.470;2023-05-12T00:09:13;96819.44;;;17.90;37.73
47082;BME280;33066;49.296;14.470;2023-05-12T00:11:39;96816.16;;;18.17;37.64
47082;BME280;33066;49.296;14.470;2023-05-12T00:14:05;96813.91;;;18.22;37.61
47082;BME280;33066;49.296;14.470;2023-05-12T00:16:29;96813.58;;;18.30;37.27
47082;BME280;33066;49.296;14.470;2023-05-12T00:18:55;96816.54;;;18.39;37.01
47082;BME280;33066;49.296;14.470;2023-05-12T00:21:20;96819.21;;;18.38;37.24
47082;BME280;33066;49.296;14.470;2023-05-12T00:23:46;96820.56;;;18.34;37.43
47082;BME280;33066;49.296;14.470;2023-05-12T00:26:11;96819.53;;;18.03;37.30
47082;BME280;33066;49.296;14.470;2023-05-12T00:28:37;96823.85;;;18.14;37.32
47082;BME280;33066;49.296;14.470;2023-05-12T00:31:04;96824.50;;;18.26;37.68
47082;BME280;33066;49.296;14.470;2023-05-12T00:33:28;96826.68;;;17.95;37.92
47082;BME280;33066;49.296;14.470;2023-05-12T00:35:54;96825.61;;;17.95;37.88
47082;BME280;33066;49.296;14.470;2023-05-12T00:38:20;96828.05;;;17.90;38.04
47082;BME280;33066;49.296;14.470;2023-05-12T00:40:44;96829.31;;;17.82;38.04
47082;BME280;33066;49.296;14.470;2023-05-12T00:43:09;96831.76;;;17.75;37.74
47082;BME280;33066;49.296;14.470;2023-05-12T00:45:35;96831.60;;;17.77;37.42
47082;BME280;33066;49.296;14.470;2023-05-12T00:48:02;96829.76;;;18.33;37.38
47082;BME280;33066;49.296;14.470;2023-05-12T00:50:27;96828.07;;;17.91;37.12
47082;BME280;33066;49.296;14.470;2023-05-12T00:52:52;96825.14;;;18.10;37.04
47082;BME280;33066;49.296;14.470;2023-05-12T00:55:18;96823.98;;;17.91;36.91
47082;BME280;33066;49.296;14.470;2023-05-12T00:57:44;96820.72;;;18.19;36.91
47082;BME280;33066;49.296;14.470;2023-05-12T01:00:10;96824.57;;;18.24;36.72
47082;BME280;33066;49.296;14.470;2023-05-12T01:02:35;96823.71;;;17.71;37.34
47082;BME280;33066;49.296;14.470;2023-05-12T01:05:00;96819.66;;;17.91;37.44
47082;BME280;33066;49.296;14.470;2023-05-12T01:07:26;96821.57;;;17.93;37.20
47082;BME280;33066;49.296;14.470;2023-05-12T01:09:53;96822.11;;;18.02;37.09
47082;BME280;33066;49.296;14.470;2023-05-12T01:12:18;96820.64;;;18.45;37.35
47082;BME280;33066;49.296;14.470;2023-05-12T01:14:42;96822.15;;;18.02;37.37
47082;BME280;33066;49.296;14.470;2023-05-12T01:17:10;96823.30;;;17.99;37.26
47082;BME280;33066;49.296;14.470;2023-05-12T01:19:39;96824.68;;;17.95;37.60
47082;BME280;33066;49.296;14.470;2023-05-12T01:21:58;96823.86;;;18.19;37.78
47082;BME280;33066;49.296;14.470;2023-05-12T01:24:28;96823.24;;;17.95;37.79
47082;BME280;33066;49.296;14.470;2023-05-12T01:26:49;96821.91;;;18.01;37.72
47082;BME280;33066;49.296;14.470;2023-05-12T01:29:14;96821.49;;;18.21;37.76
47082;BME280;33066;49.296;14.470;2023-05-12T01:31:40;96822.72;;;18.00;37.86
47082;BME280;33066;49.296;14.470;2023-05-12T01:34:05;96823.84;;;18.04;37.78
47082;BME280;33066;49.296;14.470;2023-05-12T01:36:30;96821.86;;;18.06;37.96
47082;BME280;33066;49.296;14.470;2023-05-12T01:38:56;96821.70;;;17.78;37.87
47082;BME280;33066;49.296;14.470;2023-05-12T01:41:21;96821.81;;;18.02;37.82
47082;BME280;33066;49.296;14.470;2023-05-12T01:43:46;96824.73;;;17.97;37.83
47082;BME280;33066;49.296;14.470;2023-05-12T01:46:12;96821.79;;;17.88;38.13
47082;BME280;33066;49.296;14.470;2023-05-12T01:48:38;96823.54;;;17.90;38.23
47082;BME280;33066;49.296;14.470;2023-05-12T01:51:07;96822.79;;;17.86;38.22
47082;BME280;33066;49.296;14.470;2023-05-12T01:53:28;96827.78;;;17.85;38.35
47082;BME280;33066;49.296;14.470;2023-05-12T01:55:54;96826.28;;;17.80;38.51
47082;BME280;33066;49.296;14.470;2023-05-12T01:58:19;96829.64;;;18.05;38.56
47082;BME280;33066;49.296;14.470;2023-05-12T02:00:44;96832.33;;;17.86;38.53
47082;BME280;33066;49.296;14.470;2023-05-12T02:03:10;96831.76;;;17.87;38.55
47082;BME280;33066;49.296;14.470;2023-05-12T02:05:35;96835.25;;;17.80;38.16
47082;BME280;33066;49.296;14.470;2023-05-12T02:08:01;96838.76;;;17.98;37.79
47082;BME280;33066;49.296;14.470;2023-05-12T02:10:26;96840.18;;;17.72;37.78
47082;BME280;33066;49.296;14.470;2023-05-12T02:12:51;96839.82;;;17.79;37.62
47082;BME280;33066;49.296;14.470;2023-05-12T02:15:16;96839.96;;;17.72;37.43
47082;BME280;33066;49.296;14.470;2023-05-12T02:17:41;96840.40;;;18.00;36.71
47082;BME280;33066;49.296;14.470;2023-05-12T02:20:08;96843.97;;;17.71;36.34
47082;BME280;33066;49.296;14.470;2023-05-12T02:22:32;96843.93;;;17.81;36.35
47082;BME280;33066;49.296;14.470;2023-05-12T02:24:58;96845.23;;;17.61;36.29
47082;BME280;33066;49.296;14.470;2023-05-12T02:27:25;96844.20;;;17.91;36.23
47082;BME280;33066;49.296;14.470;2023-05-12T02:29:49;96843.69;;;17.58;36.08
47082;BME280;33066;49.296;14.470;2023-05-12T02:32:14;96844.80;;;17.52;36.09
47082;BME280;33066;49.296;14.470;2023-05-12T02:34:39;96842.52;;;17.58;36.22
47082;BME280;33066;49.296;14.470;2023-05-12T02:37:05;96841.36;;;17.60;36.06
47082;BME280;33066;49.296;14.470;2023-05-12T02:39:30;96839.43;;;17.80;36.20
47082;BME280;33066;49.296;14.470;2023-05-12T02:41:55;96839.21;;;17.70;36.07
47082;BME280;33066;49.296;14.470;2023-05-12T02:44:20;96834.60;;;18.01;36.09
47082;BME280;33066;49.296;14.470;2023-05-12T02:46:46;96833.23;;;17.83;36.25
47082;BME280;33066;49.296;14.470;2023-05-12T02:49:11;96831.34;;;18.12;36.19
47082;BME280;33066;49.296;14.470;2023-05-12T02:51:37;96830.35;;;17.97;36.16
47082;BME280;33066;49.296;14.470;2023-05-12T02:54:03;96830.20;;;18.01;36.24
47082;BME280;33066;49.296;14.470;2023-05-12T02:56:28;96828.67;;;18.05;36.26
47082;BME280;33066;49.296;14.470;2023-05-12T02:58:53;96829.89;;;17.84;36.00
47082;BME280;33066;49.296;14.470;2023-05-12T03:01:18;96830.50;;;18.15;35.99
47082;BME280;33066;49.296;14.470;2023-05-12T03:03:44;96828.91;;;18.26;36.23
47082;BME280;33066;49.296;14.470;2023-05-12T03:06:09;96829.46;;;18.28;36.40
47082;BME280;33066;49.296;14.470;2023-05-12T03:08:34;96826.12;;;18.31;36.63
47082;BME280;33066;49.296;14.470;2023-05-12T03:13:00;96823.20;;;18.27;35.60
47082;BME280;33066;49.296;14.470;2023-05-12T03:15:26;96825.37;;;18.06;35.49
47082;BME280;33066;49.296;14.470;2023-05-12T03:17:51;96825.95;;;18.13;35.67
47082;BME280;33066;49.296;14.470;2023-05-12T03:20:16;96826.59;;;18.03;35.96
47082;BME280;33066;49.296;14.470;2023-05-12T03:22:41;96828.87;;;18.26;36.07
47082;BME280;33066;49.296;14.470;2023-05-12T03:25:08;96830.70;;;18.24;36.18
47082;BME280;33066;49.296;14.470;2023-05-12T03:27:32;96832.39;;;18.24;35.85
47082;BME280;33066;49.296;14.470;2023-05-12T03:29:59;96834.06;;;18.30;35.97
47082;BME280;33066;49.296;14.470;2023-05-12T03:32:23;96835.39;;;18.12;35.68
47082;BME280;33066;49.296;14.470;2023-05-12T03:34:48;96831.82;;;18.15;35.54
47082;BME280;33066;49.296;14.470;2023-05-12T03:37:13;96832.64;;;18.39;35.34
47082;BME280;33066;49.296;14.470;2023-05-12T03:39:38;96837.16;;;18.15;35.47
47082;BME280;33066;49.296;14.470;2023-05-12T03:42:05;96833.84;;;18.42;35.55
47082;BME280;33066;49.296;14.470;2023-05-12T03:44:28;96837.18;;;18.34;35.40
47082;BME280;33066;49.296;14.470;2023-05-12T03:46:54;96839.33;;;17.88;35.48
47082;BME280;33066;49.296;14.470;2023-05-12T03:49:19;96841.73;;;17.69;36.03
47082;BME280;33066;49.296;14.470;2023-05-12T03:51:44;96845.58;;;17.51;35.97
47082;BME280;33066;49.296;14.470;2023-05-12T03:54:09;96848.31;;;17.69;36.26
47082;BME280;33066;49.296;14.470;2023-05-12T03:56:34;96848.77;;;17.93;36.45
47082;BME280;33066;49.296;14.470;2023-05-12T03:59:00;96849.29;;;17.77;36.22
47082;BME280;33066;49.296;14.470;2023-05-12T04:01:26;96852.19;;;17.55;36.29
47082;BME280;33066;49.296;14.470;2023-05-12T04:03:52;96854.09;;;17.90;36.13
47082;BME280;33066;49.296;14.470;2023-05-12T04:06:16;96852.84;;;17.77;36.04
47082;BME280;33066;49.296;14.470;2023-05-12T04:08:41;96850.66;;;17.83;35.96
47082;BME280;33066;49.296;14.470;2023-05-12T04:11:07;96852.86;;;17.90;35.91
47082;BME280;33066;49.296;14.470;2023-05-12T04:13:32;96850.27;;;18.23;35.88
47082;BME280;33066;49.296;14.470;2023-05-12T04:15:58;96848.56;;;17.73;35.77
47082;BME280;33066;49.296;14.470;2023-05-12T04:18:23;96852.04;;;17.98;35.69
47082;BME280;33066;49.296;14.470;2023-05-12T04:20:48;96852.19;;;18.27;35.65
47082;BME280;33066;49.296;14.470;2023-05-12T04:23:13;96854.53;;;18.13;35.60
47082;BME280;33066;49.296;14.470;2023-05-12T04:25:40;96855.68;;;18.14;35.63
47082;BME280;33066;49.296;14.470;2023-05-12T04:28:04;96857.88;;;18.02;35.71
47082;BME280;33066;49.296;14.470;2023-05-12T04:30:29;96860.68;;;17.89;35.79
47082;BME280;33066;49.296;14.470;2023-05-12T04:32:54;96866.14;;;17.64;35.89
47082;BME280;33066;49.296;14.470;2023-05-12T04:35:20;96869.35;;;17.77;36.04
47082;BME280;33066;49.296;14.470;2023-05-12T04:37:45;96869.15;;;17.78;36.07
47082;BME280;33066;49.296;14.470;2023-05-12T04:40:11;96873.99;;;18.19;36.09
47082;BME280;33066;49.296;14.470;2023-05-12T04:42:37;96874.62;;;17.79;36.15
47082;BME280;33066;49.296;14.470;2023-05-12T04:45:02;96879.06;;;17.78;36.23
47082;BME280;33066;49.296;14.470;2023-05-12T04:47:27;96881.62;;;17.81;36.26
47082;BME280;33066;49.296;14.470;2023-05-12T04:49:52;96882.99;;;17.81;36.23
47082;BME280;33066;49.296;14.470;2023-05-12T04:52:17;96884.21;;;17.92;36.15
47082;BME280;33066;49.296;14.470;2023-05-12T04:54:43;96886.81;;;17.92;36.11
47082;BME280;33066;49.296;14.470;2023-05-12T04:57:08;96886.29;;;17.66;36.10
47082;BME280;33066;49.296;14.470;2023-05-12T04:59:33;96888.19;;;17.68;36.17
47082;BME280;33066;49.296;14.470;2023-05-12T05:01:58;96888.83;;;18.04;36.21
47082;BME280;33066;49.296;14.470;2023-05-12T05:04:24;96889.69;;;17.89;36.34
47082;BME280;33066;49.296;14.470;2023-05-12T05:06:49;96888.41;;;18.16;36.17
47082;BME280;33066;49.296;14.470;2023-05-12T05:09:14;96886.67;;;18.22;36.26
47082;BME280;33066;49.296;14.470;2023-05-12T05:11:39;96885.64;;;18.21;36.25
47082;BME280;33066;49.296;14.470;2023-05-12T05:14:05;96885.25;;;18.22;36.10
47082;BME280;33066;49.296;14.470;2023-05-12T05:16:32;96888.99;;;18.18;36.07
47082;BME280;33066;49.296;14.470;2023-05-12T05:18:55;96890.01;;;17.84;36.05
47082;BME280;33066;49.296;14.470;2023-05-12T05:21:20;96890.01;;;18.25;35.78
47082;BME280;33066;49.296;14.470;2023-05-12T05:23:46;96892.77;;;18.45;35.73
47082;BME280;33066;49.296;14.470;2023-05-12T05:26:11;96895.41;;;18.47;35.98
47082;BME280;33066;49.296;14.470;2023-05-12T05:28:36;96896.04;;;18.24;36.00
47082;BME280;33066;49.296;14.470;2023-05-12T05:31:01;96895.94;;;18.09;35.83
47082;BME280;33066;49.296;14.470;2023-05-12T05:33:26;96897.59;;;18.67;35.79
47082;BME280;33066;49.296;14.470;2023-05-12T05:35:52;96897.91;;;18.74;35.91
47082;BME280;33066;49.296;14.470;2023-05-12T05:38:17;96897.98;;;18.74;35.67
47082;BME280;33066;49.296;14.470;2023-05-12T05:40:43;96899.25;;;18.52;35.61
47082;BME280;33066;49.296;14.470;2023-05-12T05:43:08;96900.49;;;18.52;35.57
47082;BME280;33066;49.296;14.470;2023-05-12T05:45:34;96902.58;;;18.51;35.61
47082;BME280;33066;49.296;14.470;2023-05-12T05:47:59;96905.52;;;18.50;35.52
47082;BME280;33066;49.296;14.470;2023-05-12T05:50:25;96908.72;;;18.59;35.61
47082;BME280;33066;49.296;14.470;2023-05-12T05:52:49;96911.39;;;18.93;35.87
47082;BME280;33066;49.296;14.470;2023-05-12T05:55:15;96913.85;;;18.70;35.84
47082;BME280;33066;49.296;14.470;2023-05-12T05:57:40;96910.08;;;18.43;35.53
47082;BME280;33066;49.296;14.470;2023-05-12T06:00:07;96914.38;;;18.86;35.75
47082;BME280;33066;49.296;14.470;2023-05-12T06:02:31;96916.38;;;18.31;35.63
47082;BME280;33066;49.296;14.470;2023-05-12T06:04:56;96917.47;;;18.71;35.84
47082;BME280;33066;49.296;14.470;2023-05-12T06:07:22;96921.73;;;18.74;35.90
47082;BME280;33066;49.296;14.470;2023-05-12T06:09:47;96925.37;;;18.51;36.01
47082;BME280;33066;49.296;14.470;2023-05-12T06:12:12;96930.11;;;18.46;36.31
47082;BME280;33066;49.296;14.470;2023-05-12T06:14:37;96930.41;;;18.14;36.36
47082;BME280;33066;49.296;14.470;2023-05-12T06:17:03;96937.09;;;18.23;36.55
47082;BME280;33066;49.296;14.470;2023-05-12T06:19:28;96938.25;;;18.37;36.59
47082;BME280;33066;49.296;14.470;2023-05-12T06:21:53;96941.75;;;18.27;37.07
47082;BME280;33066;49.296;14.470;2023-05-12T06:24:20;96938.64;;;18.30;37.27
47082;BME280;33066;49.296;14.470;2023-05-12T06:26:43;96938.73;;;18.24;36.91
47082;BME280;33066;49.296;14.470;2023-05-12T06:29:08;96938.15;;;17.77;37.05
47082;BME280;33066;49.296;14.470;2023-05-12T06:31:33;96941.91;;;18.02;37.12
47082;BME280;33066;49.296;14.470;2023-05-12T06:33:59;96944.22;;;18.16;37.02
47082;BME280;33066;49.296;14.470;2023-05-12T06:36:25;96945.00;;;18.23;37.11
47082;BME280;33066;49.296;14.470;2023-05-12T06:38:50;96947.59;;;18.38;37.08
47082;BME280;33066;49.296;14.470;2023-05-12T06:41:15;96956.95;;;18.14;36.90
47082;BME280;33066;49.296;14.470;2023-05-12T06:43:41;96958.15;;;18.13;36.76
47082;BME280;33066;49.296;14.470;2023-05-12T06:46:06;96955.90;;;18.21;36.56
47082;BME280;33066;49.296;14.470;2023-05-12T06:48:31;96956.85;;;18.29;36.38
47082;BME280;33066;49.296;14.470;2023-05-12T06:50:57;96957.92;;;18.23;36.42
47082;BME280;33066;49.296;14.470;2023-05-12T06:53:22;96957.15;;;18.21;36.52
47082;BME280;33066;49.296;14.470;2023-05-12T06:55:47;96961.74;;;18.16;36.61
47082;BME280;33066;49.296;14.470;2023-05-12T06:58:14;96961.39;;;18.18;36.60
47082;BME280;33066;49.296;14.470;2023-05-12T07:00:37;96963.13;;;18.02;36.76
47082;BME280;33066;49.296;14.470;2023-05-12T07:03:03;96964.02;;;18.38;36.97
47082;BME280;33066;49.296;14.470;2023-05-12T07:05:28;96961.37;;;18.46;36.89
47082;BME280;33066;49.296;14.470;2023-05-12T07:07:53;96964.39;;;18.17;36.65
47082;BME280;33066;49.296;14.470;2023-05-12T07:10:19;96965.20;;;18.30;36.33
47082;BME280;33066;49.296;14.470;2023-05-12T07:12:44;96965.81;;;18.13;36.30
47082;BME280;33066;49.296;14.470;2023-05-12T07:15:10;96966.13;;;18.00;36.34
47082;BME280;33066;49.296;14.470;2023-05-12T07:17:35;96963.18;;;18.17;36.25
47082;BME280;33066;49.296;14.470;2023-05-12T07:20:00;96963.11;;;18.32;35.98
47082;BME280;33066;49.296;14.470;2023-05-12T07:22:25;96967.00;;;18.50;36.02
47082;BME280;33066;49.296;14.470;2023-05-12T07:24:50;96960.41;;;18.30;35.61
47082;BME280;33066;49.296;14.470;2023-05-12T07:27:17;96961.40;;;18.03;35.56
47082;BME280;33066;49.296;14.470;2023-05-12T07:29:41;96959.74;;;17.91;35.65
47082;BME280;33066;49.296;14.470;2023-05-12T07:32:08;96962.91;;;17.86;35.79
47082;BME280;33066;49.296;14.470;2023-05-12T07:34:32;96962.25;;;17.65;35.79
47082;BME280;33066;49.296;14.470;2023-05-12T07:36:56;96965.13;;;17.88;35.76
47082;BME280;33066;49.296;14.470;2023-05-12T07:39:22;96964.07;;;17.99;35.98
47082;BME280;33066;49.296;14.470;2023-05-12T07:41:47;96968.92;;;17.91;35.92
47082;BME280;33066;49.296;14.470;2023-05-12T07:44:12;96969.98;;;17.87;35.90
47082;BME280;33066;49.296;14.470;2023-05-12T07:46:38;96972.51;;;17.86;36.06
47082;BME280;33066;49.296;14.470;2023-05-12T07:49:04;96970.94;;;17.75;35.96
47082;BME280;33066;49.296;14.470;2023-05-12T07:51:28;96976.06;;;18.13;35.87
47082;BME280;33066;49.296;14.470;2023-05-12T07:53:53;96975.93;;;18.19;35.88
47082;BME280;33066;49.296;14.470;2023-05-12T07:56:18;96976.81;;;18.07;35.79
47082;BME280;33066;49.296;14.470;2023-05-12T07:58:44;96977.12;;;18.02;35.65
47082;BME280;33066;49.296;14.470;2023-05-12T08:01:09;96978.50;;;18.08;35.56
47082;BME280;33066;49.296;14.470;2023-05-12T08:03:35;96979.64;;;18.15;35.67
47082;BME280;33066;49.296;14.470;2023-05-12T08:06:00;96977.09;;;18.15;35.35
47082;BME280;33066;49.296;14.470;2023-05-12T08:08:27;96978.70;;;18.13;35.50
47082;BME280;33066;49.296;14.470;2023-05-12T08:10:50;96975.02;;;18.09;35.45
47082;BME280;33066;49.296;14.470;2023-05-12T08:13:15;96980.65;;;18.07;35.43
47082;BME280;33066;49.296;14.470;2023-05-12T08:15:41;96982.45;;;18.15;35.66
47082;BME280;33066;49.296;14.470;2023-05-12T08:18:06;96984.32;;;17.84;35.64
47082;BME280;33066;49.296;14.470;2023-05-12T08:20:31;96985.09;;;17.95;35.32
47082;BME280;33066;49.296;14.470;2023-05-12T08:22:56;96987.00;;;18.02;35.04
47082;BME280;33066;49.296;14.470;2023-05-12T08:25:21;96991.53;;;18.14;34.81
47082;BME280;33066;49.296;14.470;2023-05-12T08:27:48;96990.28;;;18.28;34.52
47082;BME280;33066;49.296;14.470;2023-05-12T08:30:12;96994.96;;;17.86;34.53
47082;BME280;33066;49.296;14.470;2023-05-12T08:32:37;96991.31;;;18.08;34.46
47082;BME280;33066;49.296;14.470;2023-05-12T08:35:02;96990.52;;;18.24;34.12
47082;BME280;33066;49.296;14.470;2023-05-12T08:37:27;96990.10;;;18.23;34.21
47082;BME280;33066;49.296;14.470;2023-05-12T08:39:52;96993.02;;;18.45;33.79
47082;BME280;33066;49.296;14.470;2023-05-12T08:42:26;96993.43;;;18.75;33.79
47082;BME280;33066;49.296;14.470;2023-05-12T08:44:43;96994.43;;;18.57;33.34
47082;BME280;33066;49.296;14.470;2023-05-12T08:47:08;96995.20;;;18.56;33.18
47082;BME280;33066;49.296;14.470;2023-05-12T08:49:34;96992.71;;;18.71;33.15
47082;BME280;33066;49.296;14.470;2023-05-12T08:52:00;96991.24;;;18.46;33.20
47082;BME280;33066;49.296;14.470;2023-05-12T08:54:27;96990.28;;;18.99;33.34
47082;BME280;33066;49.296;14.470;2023-05-12T08:56:51;96992.15;;;18.63;32.58
47082;BME280;33066;49.296;14.470;2023-05-12T08:59:14;96990.92;;;18.44;32.48
47082;BME280;33066;49.296;14.470;2023-05-12T09:01:39;96988.50;;;18.31;33.02
47082;BME280;33066;49.296;14.470;2023-05-12T09:04:04;96992.66;;;17.98;33.41
47082;BME280;33066;49.296;14.470;2023-05-12T09:06:30;97002.19;;;17.81;33.94
47082;BME280;33066;49.296;14.470;2023-05-12T09:08:55;96999.57;;;17.97;33.84
47082;BME280;33066;49.296;14.470;2023-05-12T09:11:21;96997.33;;;18.26;33.93
47082;BME280;33066;49.296;14.470;2023-05-12T09:13:53;97002.04;;;18.41;33.73
47082;BME280;33066;49.296;14.470;2023-05-12T09:16:11;97001.32;;;18.68;33.79
47082;BME280;33066;49.296;14.470;2023-05-12T09:18:47;97001.92;;;18.72;33.72
47082;BME280;33066;49.296;14.470;2023-05-12T09:21:01;97001.69;;;18.66;33.07
47082;BME280;33066;49.296;14.470;2023-05-12T09:23:26;97002.25;;;18.61;33.12
47082;BME280;33066;49.296;14.470;2023-05-12T09:25:57;97007.01;;;18.70;32.93
47082;BME280;33066;49.296;14.470;2023-05-12T09:28:16;97006.02;;;18.65;32.81
47082;BME280;33066;49.296;14.470;2023-05-12T09:30:41;96997.77;;;17.97;32.92
47082;BME280;33066;49.296;14.470;2023-05-12T09:33:08;97006.92;;;18.07;33.29
47082;BME280;33066;49.296;14.470;2023-05-12T09:35:37;97008.86;;;18.19;33.41
47082;BME280;33066;49.296;14.470;2023-05-12T09:38:04;97008.12;;;18.30;33.21
47082;BME280;33066;49.296;14.470;2023-05-12T09:40:22;97006.45;;;18.37;33.16
47082;BME280;33066;49.296;14.470;2023-05-12T09:42:48;97010.74;;;18.45;33.09
47082;BME280;33066;49.296;14.470;2023-05-12T09:45:13;97010.01;;;18.22;33.11
47082;BME280;33066;49.296;14.470;2023-05-12T09:47:39;97010.83;;;18.01;33.25
47082;BME280;33066;49.296;14.470;2023-05-12T09:50:05;97012.29;;;18.12;33.04
47082;BME280;33066;49.296;14.470;2023-05-12T09:52:29;97016.82;;;18.15;33.45
47082;BME280;33066;49.296;14.470;2023-05-12T09:54:54;97015.77;;;18.55;33.33
47082;BME280;33066;49.296;14.470;2023-05-12T09:57:20;97010.41;;;18.54;33.14
47082;BME280;33066;49.296;14.470;2023-05-12T09:59:44;97012.68;;;18.03;33.32
47082;BME280;33066;49.296;14.470;2023-05-12T10:02:13;97015.92;;;18.08;33.19
47082;BME280;33066;49.296;14.470;2023-05-12T10:04:40;97013.74;;;18.75;32.85
47082;BME280;33066;49.296;14.470;2023-05-12T10:06:59;97014.54;;;18.82;33.04
47082;BME280;33066;49.296;14.470;2023-05-12T10:09:30;97011.05;;;18.93;33.04
47082;BME280;33066;49.296;14.470;2023-05-12T10:11:50;97004.09;;;19.25;32.55
47082;BME280;33066;49.296;14.470;2023-05-12T10:14:16;97003.85;;;19.29;32.22
47082;BME280;33066;49.296;14.470;2023-05-12T10:16:40;97000.92;;;19.08;32.20
47082;BME280;33066;49.296;14.470;2023-05-12T10:19:05;97000.46;;;18.90;32.21
47082;BME280;33066;49.296;14.470;2023-05-12T10:21:32;97006.45;;;18.70;32.41
47082;BME280;33066;49.296;14.470;2023-05-12T10:23:56;97009.16;;;18.67;32.74
47082;BME280;33066;49.296;14.470;2023-05-12T10:26:21;97009.72;;;18.41;33.01
47082;BME280;33066;49.296;14.470;2023-05-12T10:28:46;97010.69;;;18.67;33.21
47082;BME280;33066;49.296;14.470;2023-05-12T10:31:12;97010.94;;;18.50;33.15
47082;BME280;33066;49.296;14.470;2023-05-12T10:33:37;97007.18;;;18.17;33.33
47082;BME280;33066;49.296;14.470;2023-05-12T10:36:03;97010.69;;;18.33;33.70
47082;BME280;33066;49.296;14.470;2023-05-12T10:38:34;97013.87;;;18.11;33.61
47082;BME280;33066;49.296;14.470;2023-05-12T10:40:54;97016.68;;;17.70;33.94
47082;BME280;33066;49.296;14.470;2023-05-12T10:43:22;97020.65;;;18.11;34.06
47082;BME280;33066;49.296;14.470;2023-05-12T10:45:44;97020.37;;;18.20;34.15
47082;BME280;33066;49.296;14.470;2023-05-12T10:48:08;97023.10;;;18.19;34.19
47082;BME280;33066;49.296;14.470;2023-05-12T10:50:33;97017.85;;;18.28;33.94
47082;BME280;33066;49.296;14.470;2023-05-12T10:53:00;97018.79;;;18.10;33.98
47082;BME280;33066;49.296;14.470;2023-05-12T10:55:29;97021.06;;;18.37;33.78
47082;BME280;33066;49.296;14.470;2023-05-12T10:57:49;97027.33;;;18.72;33.51
47082;BME280;33066;49.296;14.470;2023-05-12T11:00:15;97024.34;;;18.98;33.21
47082;BME280;33066;49.296;14.470;2023-05-12T11:02:49;97021.24;;;19.09;32.70
47082;BME280;33066;49.296;14.470;2023-05-12T11:05:11;97016.88;;;19.47;32.53
47082;BME280;33066;49.296;14.470;2023-05-12T11:07:31;97015.64;;;19.81;32.25
47082;BME280;33066;49.296;14.470;2023-05-12T11:09:56;97014.13;;;20.05;32.04
47082;BME280;33066;49.296;14.470;2023-05-12T11:12:21;97013.13;;;20.14;31.64
47082;BME280;33066;49.296;14.470;2023-05-12T11:14:46;97012.74;;;20.08;31.57
47082;BME280;33066;49.296;14.470;2023-05-12T11:17:11;97019.31;;;19.95;31.73
47082;BME280;33066;49.296;14.470;2023-05-12T11:19:37;97020.18;;;19.19;32.02
47082;BME280;33066;49.296;14.470;2023-05-12T11:22:06;97018.36;;;19.35;32.22
47082;BME280;33066;49.296;14.470;2023-05-12T11:24:27;97023.54;;;18.84;32.36
47082;BME280;33066;49.296;14.470;2023-05-12T11:26:52;97025.67;;;18.34;32.83
47082;BME280;33066;49.296;14.470;2023-05-12T11:29:17;97027.62;;;18.31;33.37
47082;BME280;33066;49.296;14.470;2023-05-12T11:31:48;97021.48;;;18.31;33.64
47082;BME280;33066;49.296;14.470;2023-05-12T11:34:09;97031.54;;;18.42;33.56
47082;BME280;33066;49.296;14.470;2023-05-12T11:36:36;97026.81;;;17.95;33.49
47082;BME280;33066;49.296;14.470;2023-05-12T11:39:00;97023.27;;;18.18;33.33
47082;BME280;33066;49.296;14.470;2023-05-12T11:41:25;97025.35;;;18.14;33.12
47082;BME280;33066;49.296;14.470;2023-05-12T11:43:50;97025.38;;;18.48;32.91
47082;BME280;33066;49.296;14.470;2023-05-12T11:46:23;97029.82;;;18.64;32.82
47082;BME280;33066;49.296;14.470;2023-05-12T11:48:41;97033.38;;;18.41;33.02
47082;BME280;33066;49.296;14.470;2023-05-12T11:51:07;97035.71;;;18.41;32.82
47082;BME280;33066;49.296;14.470;2023-05-12T11:53:32;97035.64;;;18.18;32.93
47082;BME280;33066;49.296;14.470;2023-05-12T11:55:57;97036.86;;;18.43;32.96
47082;BME280;33066;49.296;14.470;2023-05-12T11:58:25;97036.98;;;18.58;32.77
47082;BME280;33066;49.296;14.470;2023-05-12T12:00:48;97037.81;;;18.48;32.89
47082;BME280;33066;49.296;14.470;2023-05-12T12:03:14;97035.88;;;18.77;32.69
47082;BME280;33066;49.296;14.470;2023-05-12T12:05:39;97039.84;;;18.87;32.23
47082;BME280;33066;49.296;14.470;2023-05-12T12:08:05;97038.57;;;18.50;32.30
47082;BME280;33066;49.296;14.470;2023-05-12T12:10:30;97047.12;;;18.93;32.44
47082;BME280;33066;49.296;14.470;2023-05-12T12:12:55;97042.62;;;18.62;32.75
47082;BME280;33066;49.296;14.470;2023-05-12T12:15:19;97048.09;;;18.18;32.84
47082;BME280;33066;49.296;14.470;2023-05-12T12:17:45;97057.71;;;17.83;33.04
47082;BME280;33066;49.296;14.470;2023-05-12T12:20:11;97061.85;;;17.90;33.02
47082;BME280;33066;49.296;14.470;2023-05-12T12:22:36;97062.56;;;17.85;32.79
47082;BME280;33066;49.296;14.470;2023-05-12T12:25:02;97063.14;;;18.17;32.45
47082;BME280;33066;49.296;14.470;2023-05-12T12:27:26;97062.29;;;18.50;31.92
47082;BME280;33066;49.296;14.470;2023-05-12T12:29:52;97067.33;;;18.39;31.86
47082;BME280;33066;49.296;14.470;2023-05-12T12:32:17;97063.51;;;18.62;31.80
47082;BME280;33066;49.296;14.470;2023-05-12T12:34:43;97063.33;;;18.52;31.80
47082;BME280;33066;49.296;14.470;2023-05-12T12:37:08;97068.87;;;18.85;31.79
47082;BME280;33066;49.296;14.470;2023-05-12T12:39:34;97066.66;;;18.99;31.67
47082;BME280;33066;49.296;14.470;2023-05-12T12:41:59;97069.21;;;19.34;31.66